Weather observations for the past three days for
St. Louis Lambert International Airport
Metric (Imperial)
Date Time (cdt) Wind (kph) Vis. (km) Weather Sky Cond. Temperature (ºC) Relative Humidity Wind Chill (°C) Heat Index (°C) Pressure Precipitation (cm)
Air Dwpt 6 hour altimeter (cm) sea level (mb) 1 hr 3 hr 6 hr
Max. Min.
03 18:51 S 9 16.09 A Few Clouds FEW080 35.6 19.4 37.2 35.6 39% 38 75.97 1011.3
03 17:51 SW 9 16.09 Partly Cloudy SCT075 36.1 18.9 36% 38 75.97 1011.2
03 16:51 S 13 16.09 Partly Cloudy SCT075 36.1 18.9 36% 38 75.97 1011.3
03 15:51 S 13 G 28 16.09 A Few Clouds FEW075 37.2 19.4 35% 40 76.02 1011.6
03 14:51 Vrbl 11 G 28 16.09 A Few Clouds FEW050 36.1 18.9 36% 38 76.05 1012.3
03 13:51 W 19 G 31 16.09 A Few Clouds FEW050 36.1 20 39% 39 76.1 1013.0
03 12:51 W 17 16.09 A Few Clouds FEW045 FEW090 FEW250 35 20.6 35.6 27.8 43% 38 76.15 1013.7
03 11:51 W 20 16.09 A Few Clouds FEW045 FEW080 FEW250 34.4 21.7 48% 38 76.2 1014.2
03 10:51 W 15 16.09 A Few Clouds FEW080 FEW110 33.3 21.7 51% 37 76.2 1014.4
03 09:51 SW 15 16.09 A Few Clouds FEW040 FEW110 32.2 21.7 54% 36 76.23 1014.4
03 08:51 SW 13 16.09 A Few Clouds FEW110 29.4 21.1 61% 32 76.2 1014.4
03 07:51 SW 9 16.09 A Few Clouds FEW090 28.9 20.6 61% 31 76.2 1014.4
03 06:51 SW 9 16.09 A Few Clouds FEW090 27.8 20 30 27.8 63% 29 76.17 1014.1
03 05:51 SW 15 16.09 A Few Clouds FEW090 27.8 20 63% 29 76.15 1013.6
03 04:51 SW 17 16.09 Fair CLR 28.3 20 61% 30 76.15 1013.4
03 03:51 SW 13 16.09 A Few Clouds FEW090 28.9 20 59% 31 76.15 1013.2
03 02:51 S 9 16.09 A Few Clouds FEW090 28.9 20.6 61% 31 76.12 1013.3
03 01:51 S 9 16.09 A Few Clouds FEW090 29.4 20.6 59% 32 76.12 1013.2
03 00:51 S 11 16.09 Fair CLR 30 20.6 35.6 30 57% 32 76.12 1013.2
02 23:51 S 11 16.09 Fair CLR 30.6 21.1 57% 33 76.12 1013.2
02 22:51 S 13 16.09 A Few Clouds FEW090 31.1 21.1 55% 34 76.12 1013.3
02 21:51 S 19 16.09 A Few Clouds FEW090 32.2 21.1 52% 35 76.12 1013.2
02 20:51 S 15 16.09 A Few Clouds FEW090 33.3 20 46% 36 76.1 1012.9
02 19:51 S 11 16.09 A Few Clouds FEW090 33.9 18.3 40% 35 76.05 1012.4
02 18:51 S 11 16.09 Partly Cloudy SCT090 35.6 18.3 37.8 35.6 36% 37 76.05 1012.4
02 17:51 S 11 16.09 A Few Clouds FEW095 36.7 18.9 35% 39 76.05 1012.3
02 16:51 Vrbl 7 16.09 A Few Clouds FEW075 FEW110 36.7 18.9 35% 39 76.07 1012.5
02 15:51 Calm 16.09 A Few Clouds FEW075 37.8 20.6 37% 42 76.1 1012.9
02 14:51 SW 9 16.09 A Few Clouds FEW070 FEW100 35.6 20 40% 38 76.15 1013.7
02 13:51 W 17 16.09 A Few Clouds FEW060 36.7 20 38% 40 76.2 1014.2
02 12:51 W 19 16.09 A Few Clouds FEW060 FEW250 36.1 21.7 36.1 27.8 43% 41 76.25 1014.8
02 11:51 SW 22 G 33 16.09 A Few Clouds FEW070 35 21.7 46% 39 76.3 1015.6
02 10:51 W 22 16.09 A Few Clouds FEW070 33.9 20.6 46% 37 76.33 1015.8
02 09:51 SW 20 16.09 Fair CLR 32.8 20.6 49% 36 76.3 1015.6
02 08:51 SW 11 16.09 A Few Clouds FEW080 30.6 21.1 57% 33 76.33 1015.9
02 07:51 W 9 16.09 A Few Clouds FEW080 28.9 20 59% 31 76.33 1016.0
02 06:51 SW 13 16.09 A Few Clouds FEW080 27.8 20 30 27.8 63% 29 76.28 1015.4
02 05:51 SW 17 16.09 A Few Clouds FEW080 27.8 20 63% 29 76.25 1015.0
02 04:51 SW 17 16.09 A Few Clouds FEW080 28.3 20 61% 30 76.25 1014.7
02 03:51 SW 13 16.09 A Few Clouds FEW080 28.3 20.6 63% 30 76.23 1014.4
02 02:51 S 13 16.09 A Few Clouds FEW080 28.9 20.6 61% 31 76.2 1014.3
02 01:51 S 11 16.09 A Few Clouds FEW080 29.4 20.6 59% 32 76.23 1014.5
02 00:51 S 17 16.09 A Few Clouds FEW080 30 20.6 35.6 30 57% 32 76.23 1014.5
01 23:51 S 13 16.09 A Few Clouds FEW080 30.6 20.6 55% 33 76.23 1014.4
01 22:51 S 13 16.09 A Few Clouds FEW080 31.1 20 52% 33 76.23 1014.5
01 21:51 S 11 16.09 Fair CLR 31.7 20 50% 34 76.2 1014.4
01 20:51 S 17 16.09 A Few Clouds FEW080 32.8 20 47% 35 76.15 1013.8
01 19:51 S 15 16.09 A Few Clouds FEW080 33.9 19.4 42% 36 76.12 1013.4
01 18:51 S 19 16.09 Partly Cloudy SCT080 36.3 18.6 38 27 35% 38 76.12 0.0
01 17:51 S 9 16.09 Partly Cloudy SCT085 36.7 17.8 33% 38 76.15 1013.6
01 16:51 Vrbl 7 16.09 Partly Cloudy SCT080 36.1 17.8 34% 37 76.15 1013.5
01 15:51 SW 15 16.09 A Few Clouds FEW080 37.2 17.8 32% 39 76.17 1013.8
01 14:51 W 11 16.09 A Few Clouds FEW080 36.7 18.9 35% 39 76.2 1014.4
01 13:51 W 7 16.09 A Few Clouds FEW080 36.1 19.4 37% 38 76.25 1015.1
01 12:51 W 7 16.09 Fair CLR 35 21.1 35 26.7 44% 39 76.33 1015.8
01 11:51 W 7 16.09 Fair CLR 33.3 21.1 49% 37 76.35 1016.3
01 10:51 W 20 16.09 Fair CLR 32.2 20.6 50% 35 76.38 1016.7
01 09:51 SW 15 16.09 A Few Clouds FEW250 31.1 20.6 54% 34 76.38 1016.5
01 08:51 SW 19 16.09 A Few Clouds FEW250 28.9 20 59% 31 76.38 1016.5
01 07:51 SW 9 16.09 A Few Clouds FEW250 27.2 20 65% 29 76.38 1016.5
01 06:51 Calm 16.09 A Few Clouds FEW250 26.7 19.4 28.9 26.1 64% 28 76.33 1015.9
01 05:51 SW 6 16.09 A Few Clouds FEW250 26.7 19.4 64% 28 76.3 1015.6
01 04:51 S 6 16.09 Fair CLR 26.7 19.4 64% 28 76.28 1015.4
01 03:51 SW 11 16.09 Fair CLR 27.2 20 65% 29 76.25 1014.7
01 02:51 SW 15 16.09 Fair CLR 28.3 20 61% 30 76.23 1014.5
01 01:51 SW 9 16.09 Fair CLR 28.3 20 61% 30 76.23 1014.5
01 00:51 S 11 16.09 Fair CLR 28.9 20 34.4 28.9 59% 31 76.23 1014.7
31 23:51 SW 13 16.09 Fair CLR 29.4 20 57% 31 76.23 1014.6
31 22:51 S 15 16.09 Fair CLR 30 19.4 53% 32 76.23 1014.6
31 21:51 S 15 16.09 A Few Clouds FEW250 30.6 20 53% 33 76.23 1014.5
31 20:51 S 13 16.09 A Few Clouds FEW250 31.7 18.9 47% 33 76.17 1014.0
31 19:51 SW 7 16.09 A Few Clouds FEW250 33.3 18.3 41% 34 76.15 1013.6
Date Time (cdt) Wind (kph) Vis. (km) Weather Sky Cond. Air Dwpt Max. Min. Relative Humidity Wind Chill (°C) Heat Index (°C) altimeter (cm) sea level (mb) 1 hr 3 hr 6 hr
6 hour
Temperature (ºC) Pressure Precipitation (cm)